sensor_id;sensor_type;location;lat;lon;timestamp;pressure;altitude;pressure_sealevel;temperature;humidity
76434;BME280;65265;53.200;6.080;2023-03-23T00:03:11;100053.22;;;9.86;100.00
76434;BME280;65265;53.200;6.080;2023-03-23T00:08:04;100040.38;;;9.83;100.00
76434;BME280;65265;53.200;6.080;2023-03-23T00:12:56;100039.50;;;9.83;100.00
76434;BME280;65265;53.200;6.080;2023-03-23T00:17:54;100025.91;;;9.84;100.00
76434;BME280;65265;53.200;6.080;2023-03-23T00:22:52;100011.53;;;9.87;100.00
76434;BME280;65265;53.200;6.080;2023-03-23T00:27:51;100023.69;;;9.94;100.00
76434;BME280;65265;53.200;6.080;2023-03-23T00:32:43;100021.22;;;9.99;100.00
76434;BME280;65265;53.200;6.080;2023-03-23T00:37:37;100013.19;;;9.85;100.00
76434;BME280;65265;53.200;6.080;2023-03-23T00:42:29;100015.19;;;9.95;100.00
76434;BME280;65265;53.200;6.080;2023-03-23T00:47:27;99999.81;;;9.94;100.00
76434;BME280;65265;53.200;6.080;2023-03-23T00:52:21;99996.56;;;9.99;100.00
76434;BME280;65265;53.200;6.080;2023-03-23T00:57:15;99991.38;;;9.96;100.00
76434;BME280;65265;53.200;6.080;2023-03-23T01:02:07;99969.94;;;9.91;100.00
76434;BME280;65265;53.200;6.080;2023-03-23T01:07:01;99973.50;;;9.96;100.00
76434;BME280;65265;53.200;6.080;2023-03-23T01:11:55;99963.34;;;9.99;100.00
76434;BME280;65265;53.200;6.080;2023-03-23T01:16:49;99950.59;;;9.99;100.00
76434;BME280;65265;53.200;6.080;2023-03-23T01:21:42;99954.03;;;10.01;100.00
76434;BME280;65265;53.200;6.080;2023-03-23T01:26:34;99939.63;;;10.02;100.00
76434;BME280;65265;53.200;6.080;2023-03-23T01:31:27;99932.94;;;10.05;100.00
76434;BME280;65265;53.200;6.080;2023-03-23T01:36:23;99937.34;;;10.12;100.00
76434;BME280;65265;53.200;6.080;2023-03-23T01:41:18;99921.19;;;10.13;100.00
76434;BME280;65265;53.200;6.080;2023-03-23T01:46:10;99914.47;;;10.17;100.00
76434;BME280;65265;53.200;6.080;2023-03-23T01:51:06;99913.06;;;10.28;100.00
76434;BME280;65265;53.200;6.080;2023-03-23T01:56:03;99909.22;;;10.43;100.00
76434;BME280;65265;53.200;6.080;2023-03-23T02:00:58;99893.00;;;10.43;100.00
76434;BME280;65265;53.200;6.080;2023-03-23T02:05:52;99883.91;;;10.54;100.00
76434;BME280;65265;53.200;6.080;2023-03-23T02:10:44;99882.22;;;10.54;100.00
76434;BME280;65265;53.200;6.080;2023-03-23T02:15:46;99887.47;;;10.60;100.00
76434;BME280;65265;53.200;6.080;2023-03-23T02:20:54;99877.41;;;10.66;99.25
76434;BME280;65265;53.200;6.080;2023-03-23T02:26:00;99875.81;;;10.71;97.61
76434;BME280;65265;53.200;6.080;2023-03-23T02:31:23;99877.47;;;10.68;98.00
76434;BME280;65265;53.200;6.080;2023-03-23T02:36:28;99859.56;;;10.69;97.46
76434;BME280;65265;53.200;6.080;2023-03-23T02:41:24;99867.41;;;10.75;97.37
76434;BME280;65265;53.200;6.080;2023-03-23T02:46:20;99860.41;;;10.68;97.44
76434;BME280;65265;53.200;6.080;2023-03-23T02:51:14;99857.97;;;10.73;96.78
76434;BME280;65265;53.200;6.080;2023-03-23T02:56:08;99857.25;;;10.78;96.35
76434;BME280;65265;53.200;6.080;2023-03-23T03:01:15;99845.28;;;10.77;96.21
76434;BME280;65265;53.200;6.080;2023-03-23T03:06:17;99839.22;;;10.72;97.64
76434;BME280;65265;53.200;6.080;2023-03-23T03:11:16;99835.56;;;10.63;98.10
76434;BME280;65265;53.200;6.080;2023-03-23T03:16:18;99846.66;;;10.63;98.03
76434;BME280;65265;53.200;6.080;2023-03-23T03:21:16;99826.94;;;10.58;98.10
76434;BME280;65265;53.200;6.080;2023-03-23T03:26:11;99849.97;;;10.59;99.05
76434;BME280;65265;53.200;6.080;2023-03-23T03:31:09;99872.59;;;10.44;100.00
76434;BME280;65265;53.200;6.080;2023-03-23T03:36:04;99851.09;;;10.35;100.00
76434;BME280;65265;53.200;6.080;2023-03-23T03:40:59;99832.69;;;10.15;100.00
76434;BME280;65265;53.200;6.080;2023-03-23T03:45:51;99840.44;;;10.18;100.00
76434;BME280;65265;53.200;6.080;2023-03-23T03:50:46;99850.56;;;10.15;100.00
76434;BME280;65265;53.200;6.080;2023-03-23T03:55:39;99841.94;;;10.10;100.00
76434;BME280;65265;53.200;6.080;2023-03-23T04:00:35;99844.53;;;10.12;100.00
76434;BME280;65265;53.200;6.080;2023-03-23T04:05:27;99853.03;;;10.11;100.00
76434;BME280;65265;53.200;6.080;2023-03-23T04:10:21;99853.75;;;10.07;100.00
76434;BME280;65265;53.200;6.080;2023-03-23T04:15:14;99846.66;;;9.97;100.00
76434;BME280;65265;53.200;6.080;2023-03-23T04:20:07;99861.03;;;9.93;100.00
76434;BME280;65265;53.200;6.080;2023-03-23T04:25:08;99851.31;;;9.80;100.00
76434;BME280;65265;53.200;6.080;2023-03-23T04:30:05;99854.63;;;9.76;99.72
76434;BME280;65265;53.200;6.080;2023-03-23T04:34:57;99863.81;;;9.70;99.26
76434;BME280;65265;53.200;6.080;2023-03-23T04:39:50;99853.59;;;9.70;99.64
76434;BME280;65265;53.200;6.080;2023-03-23T04:44:50;99865.94;;;9.86;97.93
76434;BME280;65265;53.200;6.080;2023-03-23T04:49:46;99865.09;;;9.87;97.32
76434;BME280;65265;53.200;6.080;2023-03-23T04:54:38;99875.56;;;9.94;96.61
76434;BME280;65265;53.200;6.080;2023-03-23T04:59:30;99863.69;;;9.96;96.23
76434;BME280;65265;53.200;6.080;2023-03-23T05:04:23;99860.22;;;9.94;95.81
76434;BME280;65265;53.200;6.080;2023-03-23T05:09:18;99884.09;;;9.96;95.60
76434;BME280;65265;53.200;6.080;2023-03-23T05:14:11;99883.22;;;9.96;95.29
76434;BME280;65265;53.200;6.080;2023-03-23T05:19:03;99882.75;;;9.78;96.10
76434;BME280;65265;53.200;6.080;2023-03-23T05:23:58;99900.13;;;9.91;94.50
76434;BME280;65265;53.200;6.080;2023-03-23T05:28:55;99905.13;;;9.86;93.68
76434;BME280;65265;53.200;6.080;2023-03-23T05:33:49;99904.84;;;9.77;94.09
76434;BME280;65265;53.200;6.080;2023-03-23T05:38:43;99915.00;;;9.74;93.18
76434;BME280;65265;53.200;6.080;2023-03-23T05:43:35;99913.25;;;9.73;92.87
76434;BME280;65265;53.200;6.080;2023-03-23T05:48:30;99921.50;;;9.65;93.58
76434;BME280;65265;53.200;6.080;2023-03-23T05:53:23;99925.00;;;9.68;93.17
76434;BME280;65265;53.200;6.080;2023-03-23T05:58:16;99919.28;;;9.77;93.12
76434;BME280;65265;53.200;6.080;2023-03-23T06:03:08;99950.75;;;9.76;93.61
76434;BME280;65265;53.200;6.080;2023-03-23T06:08:03;99963.91;;;9.60;96.20
76434;BME280;65265;53.200;6.080;2023-03-23T06:12:55;99925.81;;;9.38;97.24
76434;BME280;65265;53.200;6.080;2023-03-23T06:17:48;99938.66;;;9.13;93.94
76434;BME280;65265;53.200;6.080;2023-03-23T06:22:46;99950.38;;;9.07;91.24
76434;BME280;65265;53.200;6.080;2023-03-23T06:27:41;99956.16;;;9.03;88.58
76434;BME280;65265;53.200;6.080;2023-03-23T06:32:33;99954.06;;;8.90;88.85
76434;BME280;65265;53.200;6.080;2023-03-23T06:37:25;99973.63;;;8.91;89.87
76434;BME280;65265;53.200;6.080;2023-03-23T06:42:18;99981.50;;;8.97;90.05
76434;BME280;65265;53.200;6.080;2023-03-23T06:47:11;99992.91;;;9.08;89.46
76434;BME280;65265;53.200;6.080;2023-03-23T06:52:03;100006.13;;;9.23;88.47
76434;BME280;65265;53.200;6.080;2023-03-23T06:56:57;100008.09;;;9.31;89.03
76434;BME280;65265;53.200;6.080;2023-03-23T07:01:49;100011.59;;;9.33;90.97
76434;BME280;65265;53.200;6.080;2023-03-23T07:06:43;100009.50;;;9.48;92.04
76434;BME280;65265;53.200;6.080;2023-03-23T07:11:36;100019.56;;;9.71;92.39
76434;BME280;65265;53.200;6.080;2023-03-23T07:16:28;100021.41;;;9.75;93.53
76434;BME280;65265;53.200;6.080;2023-03-23T07:21:21;100025.97;;;9.87;92.91
76434;BME280;65265;53.200;6.080;2023-03-23T07:26:15;100025.97;;;9.87;94.13
76434;BME280;65265;53.200;6.080;2023-03-23T07:31:08;100030.78;;;10.04;92.15
76434;BME280;65265;53.200;6.080;2023-03-23T07:36:01;100022.59;;;9.88;92.42
76434;BME280;65265;53.200;6.080;2023-03-23T07:40:54;100030.59;;;9.98;92.58
76434;BME280;65265;53.200;6.080;2023-03-23T07:45:49;100039.28;;;10.03;90.67
76434;BME280;65265;53.200;6.080;2023-03-23T07:50:41;100045.41;;;10.08;90.85
76434;BME280;65265;53.200;6.080;2023-03-23T07:55:33;100047.88;;;10.05;91.42
76434;BME280;65265;53.200;6.080;2023-03-23T08:00:28;100046.31;;;10.10;90.07
76434;BME280;65265;53.200;6.080;2023-03-23T08:05:23;100058.44;;;10.17;90.10
76434;BME280;65265;53.200;6.080;2023-03-23T08:10:16;100058.25;;;10.11;90.13
76434;BME280;65265;53.200;6.080;2023-03-23T08:15:11;100064.38;;;10.16;89.00
76434;BME280;65265;53.200;6.080;2023-03-23T08:20:06;100068.75;;;10.20;88.27
76434;BME280;65265;53.200;6.080;2023-03-23T08:25:05;100065.66;;;10.32;88.25
76434;BME280;65265;53.200;6.080;2023-03-23T08:29:58;100063.78;;;10.26;87.20
76434;BME280;65265;53.200;6.080;2023-03-23T08:34:51;100067.06;;;10.50;88.39
76434;BME280;65265;53.200;6.080;2023-03-23T08:39:44;100085.63;;;10.76;86.99
76434;BME280;65265;53.200;6.080;2023-03-23T08:44:39;100094.50;;;10.88;83.96
76434;BME280;65265;53.200;6.080;2023-03-23T08:49:32;100094.88;;;11.02;85.71
76434;BME280;65265;53.200;6.080;2023-03-23T08:54:25;100096.72;;;11.07;85.25
76434;BME280;65265;53.200;6.080;2023-03-23T08:59:18;100087.75;;;11.24;84.03
76434;BME280;65265;53.200;6.080;2023-03-23T09:04:12;100094.06;;;11.37;83.12
76434;BME280;65265;53.200;6.080;2023-03-23T09:09:05;100105.53;;;11.52;83.33
76434;BME280;65265;53.200;6.080;2023-03-23T09:13:57;100100.94;;;11.39;82.53
76434;BME280;65265;53.200;6.080;2023-03-23T09:18:49;100096.97;;;11.50;83.34
76434;BME280;65265;53.200;6.080;2023-03-23T09:23:43;100106.78;;;11.01;81.17
76434;BME280;65265;53.200;6.080;2023-03-23T09:28:36;100107.81;;;11.40;81.08
76434;BME280;65265;53.200;6.080;2023-03-23T09:33:29;100115.41;;;11.71;80.78
76434;BME280;65265;53.200;6.080;2023-03-23T09:38:24;100110.84;;;11.26;79.35
76434;BME280;65265;53.200;6.080;2023-03-23T09:43:36;100123.78;;;11.32;81.43
76434;BME280;65265;53.200;6.080;2023-03-23T09:48:40;100128.19;;;11.37;78.88
76434;BME280;65265;53.200;6.080;2023-03-23T09:53:37;100125.19;;;11.53;76.98
76434;BME280;65265;53.200;6.080;2023-03-23T09:58:49;100135.81;;;11.02;77.32
76434;BME280;65265;53.200;6.080;2023-03-23T10:03:44;100137.81;;;11.13;75.64
76434;BME280;65265;53.200;6.080;2023-03-23T10:08:43;100149.44;;;11.02;77.07
76434;BME280;65265;53.200;6.080;2023-03-23T10:13:51;100141.56;;;11.27;78.15
76434;BME280;65265;53.200;6.080;2023-03-23T10:18:49;100144.59;;;12.14;74.87
76434;BME280;65265;53.200;6.080;2023-03-23T10:23:55;100152.72;;;12.34;71.59
76434;BME280;65265;53.200;6.080;2023-03-23T10:28:52;100135.47;;;12.27;74.17
76434;BME280;65265;53.200;6.080;2023-03-23T10:33:48;100147.78;;;11.69;73.07
76434;BME280;65265;53.200;6.080;2023-03-23T10:38:44;100152.88;;;11.34;74.63
76434;BME280;65265;53.200;6.080;2023-03-23T10:43:37;100169.94;;;11.35;73.69
76434;BME280;65265;53.200;6.080;2023-03-23T10:48:35;100147.94;;;11.41;76.42
76434;BME280;65265;53.200;6.080;2023-03-23T10:53:34;100176.50;;;11.25;76.42
76434;BME280;65265;53.200;6.080;2023-03-23T10:58:30;100161.19;;;11.59;76.50
76434;BME280;65265;53.200;6.080;2023-03-23T11:03:28;100167.22;;;11.60;74.33
76434;BME280;65265;53.200;6.080;2023-03-23T11:08:26;100166.44;;;11.64;74.01
76434;BME280;65265;53.200;6.080;2023-03-23T11:13:20;100179.50;;;11.42;71.74
76434;BME280;65265;53.200;6.080;2023-03-23T11:18:19;100177.88;;;11.45;72.34
76434;BME280;65265;53.200;6.080;2023-03-23T11:23:19;100175.78;;;11.29;73.50
76434;BME280;65265;53.200;6.080;2023-03-23T11:28:14;100151.44;;;11.12;71.49
76434;BME280;65265;53.200;6.080;2023-03-23T11:33:07;100183.00;;;11.45;71.67
76434;BME280;65265;53.200;6.080;2023-03-23T11:38:00;100183.88;;;11.78;73.38
76434;BME280;65265;53.200;6.080;2023-03-23T11:42:59;100176.94;;;12.46;74.53
76434;BME280;65265;53.200;6.080;2023-03-23T11:48:06;100174.38;;;12.88;71.07
76434;BME280;65265;53.200;6.080;2023-03-23T11:53:06;100193.06;;;13.22;67.97
76434;BME280;65265;53.200;6.080;2023-03-23T11:58:10;100191.53;;;13.32;66.76
76434;BME280;65265;53.200;6.080;2023-03-23T12:03:12;100185.22;;;13.61;68.04
76434;BME280;65265;53.200;6.080;2023-03-23T12:08:15;100193.16;;;13.76;65.01
76434;BME280;65265;53.200;6.080;2023-03-23T12:13:19;100192.44;;;13.84;64.94
76434;BME280;65265;53.200;6.080;2023-03-23T12:18:30;100208.00;;;13.92;64.54
76434;BME280;65265;53.200;6.080;2023-03-23T12:23:30;100202.97;;;13.99;67.40
76434;BME280;65265;53.200;6.080;2023-03-23T12:28:36;100199.03;;;14.18;64.33
76434;BME280;65265;53.200;6.080;2023-03-23T12:33:44;100205.75;;;14.13;63.26
76434;BME280;65265;53.200;6.080;2023-03-23T12:39:06;100208.72;;;14.35;64.00
76434;BME280;65265;53.200;6.080;2023-03-23T12:44:06;100187.72;;;14.10;64.20
76434;BME280;65265;53.200;6.080;2023-03-23T12:49:05;100212.16;;;13.36;64.56
76434;BME280;65265;53.200;6.080;2023-03-23T12:54:09;100214.63;;;13.78;65.97
76434;BME280;65265;53.200;6.080;2023-03-23T12:59:10;100186.09;;;14.16;67.83
76434;BME280;65265;53.200;6.080;2023-03-23T13:04:16;100186.69;;;14.53;64.19
76434;BME280;65265;53.200;6.080;2023-03-23T13:09:15;100181.72;;;14.11;63.45
76434;BME280;65265;53.200;6.080;2023-03-23T13:14:21;100179.63;;;13.87;65.44
76434;BME280;65265;53.200;6.080;2023-03-23T13:19:27;100188.91;;;13.29;67.70
76434;BME280;65265;53.200;6.080;2023-03-23T13:24:25;100180.00;;;13.58;70.29
76434;BME280;65265;53.200;6.080;2023-03-23T13:29:19;100194.72;;;13.68;65.74
76434;BME280;65265;53.200;6.080;2023-03-23T13:34:17;100192.84;;;13.12;67.75
76434;BME280;65265;53.200;6.080;2023-03-23T13:39:19;100192.66;;;13.01;68.89
76434;BME280;65265;53.200;6.080;2023-03-23T13:44:20;100189.63;;;13.71;67.97
76434;BME280;65265;53.200;6.080;2023-03-23T13:49:19;100185.72;;;13.43;69.15
76434;BME280;65265;53.200;6.080;2023-03-23T13:54:19;100187.66;;;13.55;69.03
76434;BME280;65265;53.200;6.080;2023-03-23T13:59:17;100205.88;;;13.21;70.31
76434;BME280;65265;53.200;6.080;2023-03-23T14:04:21;100185.06;;;13.07;70.54
76434;BME280;65265;53.200;6.080;2023-03-23T14:09:25;100195.31;;;13.06;71.45
76434;BME280;65265;53.200;6.080;2023-03-23T14:14:25;100200.00;;;12.85;71.01
76434;BME280;65265;53.200;6.080;2023-03-23T14:19:24;100212.41;;;13.05;69.82
76434;BME280;65265;53.200;6.080;2023-03-23T14:24:22;100204.34;;;13.30;68.93
76434;BME280;65265;53.200;6.080;2023-03-23T14:29:27;100197.19;;;13.60;67.17
76434;BME280;65265;53.200;6.080;2023-03-23T14:34:22;100203.28;;;13.67;67.08
76434;BME280;65265;53.200;6.080;2023-03-23T14:39:21;100194.00;;;13.75;66.83
76434;BME280;65265;53.200;6.080;2023-03-23T14:44:18;100183.03;;;13.85;66.29
76434;BME280;65265;53.200;6.080;2023-03-23T14:49:18;100185.56;;;13.83;66.62
76434;BME280;65265;53.200;6.080;2023-03-23T14:54:11;100177.75;;;13.76;65.63
76434;BME280;65265;53.200;6.080;2023-03-23T14:59:05;100179.78;;;13.96;66.83
76434;BME280;65265;53.200;6.080;2023-03-23T15:04:03;100184.06;;;13.96;64.39
76434;BME280;65265;53.200;6.080;2023-03-23T15:09:05;100185.09;;;14.07;66.31
76434;BME280;65265;53.200;6.080;2023-03-23T15:14:00;100176.41;;;13.99;64.66
76434;BME280;65265;53.200;6.080;2023-03-23T15:18:59;100168.59;;;13.91;63.63
76434;BME280;65265;53.200;6.080;2023-03-23T15:23:54;100180.19;;;13.68;60.57
76434;BME280;65265;53.200;6.080;2023-03-23T15:28:48;100174.88;;;13.58;63.54
76434;BME280;65265;53.200;6.080;2023-03-23T15:33:41;100167.88;;;13.49;65.42
76434;BME280;65265;53.200;6.080;2023-03-23T15:38:35;100172.03;;;13.43;66.11
76434;BME280;65265;53.200;6.080;2023-03-23T15:43:31;100140.41;;;13.47;68.31
76434;BME280;65265;53.200;6.080;2023-03-23T15:48:26;100134.59;;;13.57;68.25
76434;BME280;65265;53.200;6.080;2023-03-23T15:53:32;100134.16;;;13.31;67.65
76434;BME280;65265;53.200;6.080;2023-03-23T15:58:24;100137.34;;;13.17;70.06
76434;BME280;65265;53.200;6.080;2023-03-23T16:03:19;100146.03;;;13.25;67.38
76434;BME280;65265;53.200;6.080;2023-03-23T16:08:19;100150.00;;;13.08;67.90
76434;BME280;65265;53.200;6.080;2023-03-23T16:13:11;100147.41;;;12.65;69.11
76434;BME280;65265;53.200;6.080;2023-03-23T16:18:04;100144.69;;;12.59;71.08
76434;BME280;65265;53.200;6.080;2023-03-23T16:22:57;100150.63;;;12.55;70.11
76434;BME280;65265;53.200;6.080;2023-03-23T16:27:52;100157.38;;;12.51;70.31
76434;BME280;65265;53.200;6.080;2023-03-23T16:32:45;100145.44;;;12.52;71.00
76434;BME280;65265;53.200;6.080;2023-03-23T16:37:38;100166.44;;;12.36;72.73
76434;BME280;65265;53.200;6.080;2023-03-23T16:42:31;100164.59;;;12.29;72.40
76434;BME280;65265;53.200;6.080;2023-03-23T16:47:25;100178.38;;;12.34;73.19
76434;BME280;65265;53.200;6.080;2023-03-23T16:52:17;100164.66;;;12.32;72.87
76434;BME280;65265;53.200;6.080;2023-03-23T16:57:11;100162.66;;;12.19;73.24
76434;BME280;65265;53.200;6.080;2023-03-23T17:02:03;100167.69;;;12.14;74.18
76434;BME280;65265;53.200;6.080;2023-03-23T17:06:58;100147.84;;;12.07;73.91
76434;BME280;65265;53.200;6.080;2023-03-23T17:11:51;100134.72;;;11.94;73.72
76434;BME280;65265;53.200;6.080;2023-03-23T17:16:44;100157.03;;;11.98;74.75
76434;BME280;65265;53.200;6.080;2023-03-23T17:21:36;100132.59;;;11.75;75.47
76434;BME280;65265;53.200;6.080;2023-03-23T17:26:33;100140.22;;;11.72;75.99
76434;BME280;65265;53.200;6.080;2023-03-23T17:31:26;100139.97;;;11.63;76.42
76434;BME280;65265;53.200;6.080;2023-03-23T17:36:18;100127.59;;;11.47;76.54
76434;BME280;65265;53.200;6.080;2023-03-23T17:41:11;100160.97;;;11.50;76.98
76434;BME280;65265;53.200;6.080;2023-03-23T17:46:07;100170.88;;;11.38;77.37
76434;BME280;65265;53.200;6.080;2023-03-23T17:51:00;100158.75;;;11.31;77.98
76434;BME280;65265;53.200;6.080;2023-03-23T17:55:53;100166.00;;;11.15;78.39
76434;BME280;65265;53.200;6.080;2023-03-23T18:00:46;100169.19;;;11.06;79.52
76434;BME280;65265;53.200;6.080;2023-03-23T18:05:41;100164.97;;;11.08;79.99
76434;BME280;65265;53.200;6.080;2023-03-23T18:10:36;100167.59;;;11.11;79.56
76434;BME280;65265;53.200;6.080;2023-03-23T18:15:29;100163.19;;;11.06;80.23
76434;BME280;65265;53.200;6.080;2023-03-23T18:20:23;100155.38;;;11.00;80.54
76434;BME280;65265;53.200;6.080;2023-03-23T18:25:18;100140.78;;;10.97;80.60
76434;BME280;65265;53.200;6.080;2023-03-23T18:30:12;100138.03;;;10.90;80.97
76434;BME280;65265;53.200;6.080;2023-03-23T18:35:07;100143.84;;;10.84;81.00
76434;BME280;65265;53.200;6.080;2023-03-23T18:40:00;100138.88;;;10.90;80.94
76434;BME280;65265;53.200;6.080;2023-03-23T18:44:56;100126.16;;;10.92;80.74
76434;BME280;65265;53.200;6.080;2023-03-23T18:49:49;100135.69;;;10.97;80.43
76434;BME280;65265;53.200;6.080;2023-03-23T18:54:44;100128.84;;;10.96;81.26
76434;BME280;65265;53.200;6.080;2023-03-23T18:59:37;100139.09;;;10.98;81.52
76434;BME280;65265;53.200;6.080;2023-03-23T19:04:32;100130.44;;;10.93;82.20
76434;BME280;65265;53.200;6.080;2023-03-23T19:09:24;100123.59;;;10.92;82.12
76434;BME280;65265;53.200;6.080;2023-03-23T19:14:17;100120.97;;;10.89;82.18
76434;BME280;65265;53.200;6.080;2023-03-23T19:19:09;100118.34;;;10.87;82.04
76434;BME280;65265;53.200;6.080;2023-03-23T19:24:03;100112.47;;;10.90;81.52
76434;BME280;65265;53.200;6.080;2023-03-23T19:28:56;100105.81;;;10.96;81.56
76434;BME280;65265;53.200;6.080;2023-03-23T19:33:49;100107.41;;;10.93;81.92
76434;BME280;65265;53.200;6.080;2023-03-23T19:38:42;100100.75;;;10.99;81.54
76434;BME280;65265;53.200;6.080;2023-03-23T19:43:37;100092.44;;;11.06;80.74
76434;BME280;65265;53.200;6.080;2023-03-23T19:48:31;100076.06;;;11.01;81.22
76434;BME280;65265;53.200;6.080;2023-03-23T19:53:24;100057.75;;;10.85;82.04
76434;BME280;65265;53.200;6.080;2023-03-23T19:58:17;100069.00;;;10.91;82.38
76434;BME280;65265;53.200;6.080;2023-03-23T20:03:13;100056.78;;;10.81;83.21
76434;BME280;65265;53.200;6.080;2023-03-23T20:08:06;100052.31;;;10.73;83.92
76434;BME280;65265;53.200;6.080;2023-03-23T20:12:59;100054.91;;;10.74;86.01
76434;BME280;65265;53.200;6.080;2023-03-23T20:17:52;100053.19;;;10.73;89.01
76434;BME280;65265;53.200;6.080;2023-03-23T20:22:47;100052.69;;;10.55;91.92
76434;BME280;65265;53.200;6.080;2023-03-23T20:27:40;100048.09;;;10.44;94.48
76434;BME280;65265;53.200;6.080;2023-03-23T20:32:34;100038.81;;;10.47;96.07
76434;BME280;65265;53.200;6.080;2023-03-23T20:37:26;100035.63;;;10.54;96.96
76434;BME280;65265;53.200;6.080;2023-03-23T20:42:21;100038.56;;;10.68;96.87
76434;BME280;65265;53.200;6.080;2023-03-23T20:47:13;100031.72;;;10.67;97.66
76434;BME280;65265;53.200;6.080;2023-03-23T20:52:06;100024.69;;;10.60;98.76
76434;BME280;65265;53.200;6.080;2023-03-23T20:56:59;100007.31;;;10.47;100.00
76434;BME280;65265;53.200;6.080;2023-03-23T21:01:53;99989.22;;;10.39;100.00
76434;BME280;65265;53.200;6.080;2023-03-23T21:06:47;99985.78;;;10.39;100.00
76434;BME280;65265;53.200;6.080;2023-03-23T21:11:39;99971.41;;;10.42;100.00
76434;BME280;65265;53.200;6.080;2023-03-23T21:16:33;99973.06;;;10.42;100.00
76434;BME280;65265;53.200;6.080;2023-03-23T21:21:28;99958.44;;;10.36;100.00
76434;BME280;65265;53.200;6.080;2023-03-23T21:26:24;99948.72;;;10.23;100.00
76434;BME280;65265;53.200;6.080;2023-03-23T21:31:17;99930.81;;;10.22;100.00
76434;BME280;65265;53.200;6.080;2023-03-23T21:36:12;99921.50;;;10.24;100.00
76434;BME280;65265;53.200;6.080;2023-03-23T21:41:11;99906.28;;;10.28;100.00
76434;BME280;65265;53.200;6.080;2023-03-23T21:46:06;99885.88;;;10.30;100.00
76434;BME280;65265;53.200;6.080;2023-03-23T21:51:03;99874.25;;;10.42;100.00
76434;BME280;65265;53.200;6.080;2023-03-23T21:55:56;99868.63;;;10.55;100.00
76434;BME280;65265;53.200;6.080;2023-03-23T22:00:50;99854.25;;;10.60;100.00
76434;BME280;65265;53.200;6.080;2023-03-23T22:05:44;99835.66;;;10.67;100.00
76434;BME280;65265;53.200;6.080;2023-03-23T22:10:39;99832.34;;;10.71;100.00
76434;BME280;65265;53.200;6.080;2023-03-23T22:15:31;99815.28;;;10.70;100.00
76434;BME280;65265;53.200;6.080;2023-03-23T22:20:26;99824.78;;;10.76;100.00
76434;BME280;65265;53.200;6.080;2023-03-23T22:25:19;99809.63;;;10.83;100.00
76434;BME280;65265;53.200;6.080;2023-03-23T22:30:12;99798.56;;;10.84;100.00
76434;BME280;65265;53.200;6.080;2023-03-23T22:35:06;99802.84;;;10.85;100.00
76434;BME280;65265;53.200;6.080;2023-03-23T22:40:01;99792.63;;;10.87;100.00
76434;BME280;65265;53.200;6.080;2023-03-23T22:44:56;99784.22;;;10.92;100.00
76434;BME280;65265;53.200;6.080;2023-03-23T22:49:48;99764.31;;;10.78;100.00
76434;BME280;65265;53.200;6.080;2023-03-23T22:54:41;99754.16;;;10.82;100.00
76434;BME280;65265;53.200;6.080;2023-03-23T22:59:35;99726.97;;;10.86;100.00
76434;BME280;65265;53.200;6.080;2023-03-23T23:04:27;99709.16;;;10.90;100.00
76434;BME280;65265;53.200;6.080;2023-03-23T23:09:20;99704.81;;;10.86;100.00
76434;BME280;65265;53.200;6.080;2023-03-23T23:14:15;99704.91;;;10.91;100.00
76434;BME280;65265;53.200;6.080;2023-03-23T23:19:12;99693.88;;;10.93;100.00
76434;BME280;65265;53.200;6.080;2023-03-23T23:24:06;99686.22;;;10.95;100.00
76434;BME280;65265;53.200;6.080;2023-03-23T23:28:58;99682.03;;;10.98;100.00
76434;BME280;65265;53.200;6.080;2023-03-23T23:33:53;99675.25;;;11.00;100.00
76434;BME280;65265;53.200;6.080;2023-03-23T23:38:47;99675.22;;;10.97;100.00
76434;BME280;65265;53.200;6.080;2023-03-23T23:43:41;99667.53;;;10.97;100.00
76434;BME280;65265;53.200;6.080;2023-03-23T23:48:33;99661.44;;;10.92;100.00
76434;BME280;65265;53.200;6.080;2023-03-23T23:53:25;99656.31;;;10.92;100.00
76434;BME280;65265;53.200;6.080;2023-03-23T23:58:20;99647.81;;;10.93;100.00
